createdAt,value
2019-01-06T00:00:29.956Z,97555.33
2019-01-06T00:06:24.916Z,97555.33
2019-01-06T00:12:06.132Z,97561.55
2019-01-06T00:17:49.281Z,97569.62
2019-01-06T00:23:31.306Z,97569.62
2019-01-06T00:29:26.309Z,97567.73
2019-01-06T00:35:14.745Z,97564.50
2019-01-06T00:40:44.541Z,97573.98
2019-01-06T00:46:32.475Z,97576.94
2019-01-06T00:52:16.812Z,97561.30
2019-01-06T00:57:56.296Z,97569.34
2019-01-06T01:03:45.417Z,97569.34
2019-01-06T01:09:52.081Z,97568.55
2019-01-06T01:15:43.377Z,97578.75
2019-01-06T01:21:21.004Z,97576.66
2019-01-06T01:27:08.927Z,97585.04
2019-01-06T01:32:54.074Z,97562.36
2019-01-06T01:38:41.706Z,97577.47
2019-01-06T01:44:19.552Z,97577.47
2019-01-06T01:49:51.442Z,97580.67
2019-01-06T01:55:49.122Z,97590.09
2019-01-06T02:01:34.241Z,97590.09
2019-01-06T02:07:13.586Z,97593.84
2019-01-06T02:12:52.932Z,97593.84
2019-01-06T02:18:41.133Z,97584.97
2019-01-06T02:24:35.688Z,97584.97
2019-01-06T02:30:14.388Z,97601.17
2019-01-06T02:36:09.012Z,97600.36
2019-01-06T02:41:54.819Z,97590.09
2019-01-06T02:47:32.332Z,97606.04
2019-01-06T02:53:20.560Z,97596.59
2019-01-06T02:59:00.795Z,97590.94
2019-01-06T03:04:38.843Z,97606.85
2019-01-06T03:10:24.362Z,97603.91
2019-01-06T03:16:03.914Z,97594.70
2019-01-06T03:21:46.482Z,97602.23
2019-01-06T03:27:18.495Z,97608.73
2019-01-06T03:33:03.637Z,97601.24
2019-01-06T03:38:40.591Z,97601.24
2019-01-06T03:44:31.744Z,97578.50
2019-01-06T03:50:11.046Z,97577.16
2019-01-06T03:55:48.355Z,97581.23
2019-01-06T04:01:21.594Z,97560.98
2019-01-06T04:06:59.559Z,97579.35
2019-01-06T04:12:42.152Z,97593.67
2019-01-06T04:18:21.406Z,97577.44
2019-01-06T04:23:59.159Z,97606.92
2019-01-06T04:29:36.963Z,97598.01
2019-01-06T04:35:15.765Z,97620.39
2019-01-06T04:40:53.382Z,97647.16
2019-01-06T04:46:33.004Z,97655.25
2019-01-06T04:52:10.449Z,97648.71
2019-01-06T04:57:56.454Z,97658.11
2019-01-06T05:03:38.684Z,97652.06
2019-01-06T05:09:16.616Z,97646.95
2019-01-06T05:14:58.989Z,97635.61
2019-01-06T05:20:37.178Z,97643.91
2019-01-06T05:26:14.787Z,97666.66
2019-01-06T05:31:52.350Z,97666.66
2019-01-06T05:37:31.411Z,97650.27
2019-01-06T05:43:25.544Z,97651.90
2019-01-06T05:49:15.253Z,97668.38
2019-01-06T05:55:00.094Z,97676.94
2019-01-06T06:00:49.922Z,97676.94
2019-01-06T06:06:32.282Z,97721.53
2019-01-06T06:12:11.200Z,97721.53
2019-01-06T06:17:50.421Z,97717.95
2019-01-06T06:23:41.742Z,97741.24
2019-01-06T06:29:09.934Z,97769.64
2019-01-06T06:35:05.143Z,97781.27
2019-01-06T06:40:42.896Z,97783.97
2019-01-06T06:46:31.287Z,97773.13
2019-01-06T06:52:10.667Z,97783.92
2019-01-06T06:58:30.417Z,97805.56
2019-01-06T07:04:08.497Z,97791.48
2019-01-06T07:09:59.820Z,97791.48
2019-01-06T07:15:37.557Z,97821.00
2019-01-06T07:21:33.305Z,97802.87
2019-01-06T07:27:10.723Z,97806.92
2019-01-06T07:32:50.343Z,97824.05
2019-01-06T07:38:35.957Z,97821.55
2019-01-06T07:44:18.526Z,97836.40
2019-01-06T07:50:00.740Z,97837.73
2019-01-06T07:55:38.004Z,97839.08
2019-01-06T08:01:17.186Z,97858.30
2019-01-06T08:06:51.764Z,97866.98
2019-01-06T08:12:36.876Z,97886.42
2019-01-06T08:18:13.964Z,97907.25
2019-01-06T08:24:04.884Z,97889.29
2019-01-06T08:29:43.643Z,97901.30
2019-01-06T08:35:21.404Z,97916.91
2019-01-06T08:47:50.494Z,97904.31
2019-01-06T08:53:00.042Z,97915.01
2019-01-06T08:58:54.225Z,97926.34
2019-01-06T09:04:34.468Z,97939.61
2019-01-06T09:10:05.935Z,97939.61
2019-01-06T09:15:44.291Z,97957.19
2019-01-06T09:21:19.230Z,97958.45
2019-01-06T09:27:10.377Z,97970.43
2019-01-06T09:33:05.193Z,97970.43
2019-01-06T09:38:42.448Z,97977.84
2019-01-06T09:44:33.738Z,98007.34
2019-01-06T09:50:28.502Z,97993.45
2019-01-06T09:55:55.798Z,97993.45
2019-01-06T10:01:46.902Z,97993.45
2019-01-06T10:07:22.514Z,97999.69
2019-01-06T10:13:24.200Z,98007.13
2019-01-06T10:18:55.105Z,98024.53
2019-01-06T10:24:37.864Z,98004.05
2019-01-06T10:30:23.001Z,98004.05
2019-01-06T10:36:07.263Z,98024.94
2019-01-06T10:41:47.064Z,98018.91
2019-01-06T10:47:33.247Z,98010.70
2019-01-06T10:53:10.639Z,98010.70
2019-01-06T10:59:01.531Z,98026.03
2019-01-06T11:04:39.321Z,98030.94
2019-01-06T11:10:24.879Z,98030.94
2019-01-06T11:16:04.876Z,98041.27
2019-01-06T11:21:46.443Z,98054.84
2019-01-06T11:27:23.931Z,98042.89
2019-01-06T11:33:11.991Z,98045.59
2019-01-06T11:38:55.345Z,98049.05
2019-01-06T11:44:41.877Z,98049.05
2019-01-06T11:50:21.597Z,98050.95
2019-01-06T11:55:54.222Z,98043.06
2019-01-06T12:01:32.178Z,98041.42
2019-01-06T12:07:09.873Z,98026.64
2019-01-06T12:12:47.818Z,98027.11
2019-01-06T12:18:26.149Z,98032.06
2019-01-06T12:23:58.298Z,98016.82
2019-01-06T12:29:43.337Z,98016.82
2019-01-06T12:35:40.304Z,98041.21
2019-01-06T12:41:29.022Z,98037.27
2019-01-06T12:47:08.066Z,98044.22
2019-01-06T12:52:47.511Z,98062.39
2019-01-06T12:58:29.527Z,98061.23
2019-01-06T13:04:14.840Z,98053.92
2019-01-06T13:10:08.552Z,98065.59
2019-01-06T13:15:45.995Z,98065.59
2019-01-06T13:21:25.644Z,98088.97
2019-01-06T13:27:20.615Z,98084.77
2019-01-06T13:32:59.206Z,98084.77
2019-01-06T13:38:57.538Z,98089.14
2019-01-06T13:44:50.522Z,98083.77
2019-01-06T13:50:31.571Z,98083.77
2019-01-06T13:56:16.473Z,98085.48
2019-01-06T14:02:01.332Z,98104.38
2019-01-06T14:08:00.618Z,98096.99
2019-01-06T14:13:34.616Z,98088.31
2019-01-06T14:19:16.038Z,98101.28
2019-01-06T14:24:54.723Z,98091.41
2019-01-06T14:30:43.261Z,98091.41
2019-01-06T14:36:21.806Z,98101.59
2019-01-06T14:42:03.744Z,98100.25
2019-01-06T14:47:40.665Z,98100.72
2019-01-06T14:53:24.200Z,98094.19
2019-01-06T14:59:22.210Z,98094.19
2019-01-06T15:05:06.998Z,98106.65
2019-01-06T15:10:51.523Z,98110.93
2019-01-06T15:16:27.982Z,98106.88
2019-01-06T15:22:18.968Z,98101.98
2019-01-06T15:27:57.024Z,98105.45
2019-01-06T15:33:44.274Z,98098.82
2019-01-06T15:39:24.607Z,98120.50
2019-01-06T15:45:08.539Z,98130.47
2019-01-06T15:50:59.005Z,98133.66
2019-01-06T15:56:35.713Z,98124.24
2019-01-06T16:02:16.754Z,98139.08
2019-01-06T16:08:11.273Z,98152.57
2019-01-06T16:14:06.055Z,98152.57
2019-01-06T16:19:43.713Z,98175.20
2019-01-06T16:25:26.566Z,98178.63
2019-01-06T16:31:05.018Z,98176.75
2019-01-06T16:36:46.756Z,98189.48
2019-01-06T16:42:29.012Z,98189.48
2019-01-06T16:48:18.143Z,98192.11
2019-01-06T16:53:54.184Z,98200.27
2019-01-06T16:59:51.069Z,98189.38
2019-01-06T17:05:42.728Z,98203.14
2019-01-06T17:11:31.691Z,98207.67
2019-01-06T17:17:11.103Z,98204.98
2019-01-06T17:22:48.912Z,98201.72
2019-01-06T17:28:40.301Z,98218.42
2019-01-06T17:34:20.004Z,98218.95
2019-01-06T17:39:58.818Z,98223.75
2019-01-06T17:45:39.950Z,98223.75
2019-01-06T17:51:27.831Z,98237.45
2019-01-06T17:57:10.289Z,98238.56
2019-01-06T18:02:48.090Z,98234.75
2019-01-06T18:08:26.748Z,98234.75
2019-01-06T18:14:05.151Z,98239.20
2019-01-06T18:19:43.103Z,98235.19
2019-01-06T18:25:34.661Z,98228.97
2019-01-06T18:31:14.607Z,98228.97
2019-01-06T18:36:55.152Z,98252.40
2019-01-06T18:42:41.279Z,98243.80
2019-01-06T18:48:29.825Z,98243.80
2019-01-06T18:54:07.689Z,98260.30
2019-01-06T18:59:46.627Z,98274.19
2019-01-06T19:05:25.003Z,98271.48
2019-01-06T19:11:14.113Z,98271.48
2019-01-06T19:16:56.481Z,98262.66
2019-01-06T19:22:36.963Z,98264.77
2019-01-06T19:28:14.785Z,98264.77
2019-01-06T19:33:52.635Z,98268.16
2019-01-06T19:39:30.603Z,98277.87
2019-01-06T19:45:10.822Z,98280.30
2019-01-06T19:50:49.638Z,98275.47
2019-01-06T19:56:33.019Z,98278.95
2019-01-06T20:02:09.564Z,98284.39
2019-01-06T20:08:02.032Z,98283.73
2019-01-06T20:13:39.802Z,98289.16
2019-01-06T20:19:17.969Z,98285.80
2019-01-06T20:25:00.463Z,98285.80
2019-01-06T20:30:49.071Z,98286.74
2019-01-06T20:36:41.053Z,98286.74
2019-01-06T20:42:26.584Z,98294.77
2019-01-06T20:48:18.127Z,98283.45
2019-01-06T20:53:56.029Z,98292.70
2019-01-06T20:59:33.695Z,98289.44
2019-01-06T21:05:13.318Z,98289.44
2019-01-06T21:10:51.745Z,98291.73
2019-01-06T21:16:31.390Z,98307.09
2019-01-06T21:22:24.490Z,98307.09
2019-01-06T21:28:10.669Z,98293.61
2019-01-06T21:33:50.435Z,98293.61
2019-01-06T21:39:29.502Z,98310.02
2019-01-06T21:45:05.072Z,98304.31
2019-01-06T21:50:59.519Z,98307.02
2019-01-06T21:56:38.006Z,98305.40
2019-01-06T22:02:32.187Z,98304.69
2019-01-06T22:08:11.819Z,98300.27
2019-01-06T22:13:51.408Z,98300.27
2019-01-06T22:19:36.062Z,98298.88
2019-01-06T22:25:07.367Z,98300.46
2019-01-06T22:30:56.971Z,98322.05
2019-01-06T22:36:54.403Z,98318.38
2019-01-06T22:42:42.306Z,98318.38
2019-01-06T22:48:20.369Z,98322.65
2019-01-06T22:53:58.389Z,98327.97
2019-01-06T22:59:42.697Z,98327.97
2019-01-06T23:05:15.443Z,98332.87
2019-01-06T23:10:54.043Z,98343.09
2019-01-06T23:16:33.584Z,98337.06
2019-01-06T23:22:08.326Z,98332.38
2019-01-06T23:27:46.776Z,98344.22
2019-01-06T23:33:32.362Z,98338.78
2019-01-06T23:39:11.786Z,98338.78
2019-01-06T23:44:49.582Z,98342.45
2019-01-06T23:50:27.346Z,98350.84
2019-01-06T23:56:05.044Z,98347.91
